This is the latest recevied weather packets stored in our database for station/object KD4MBW. If no packets are shown the sender has not sent any weather packets the latest 10 day(s).
| Time | Temp. | Humidity | Pressure | Rain* | Wind** | Luminosity | Snow |
|---|---|---|---|---|---|---|---|
| 1787417551 | 31.67° C | 79% | 1015.5 hPa | 0 mm | - | 790 W/m² | - |
| 1787417241 | 32.22° C | 78% | 1015.8 hPa | 0 mm | - | 217 W/m² | - |
| 1787416937 | 32.22° C | 76% | 1015.5 hPa | 0 mm | - | 518 W/m² | - |
| 1787416632 | 32.22° C | 76% | 1015.8 hPa | 0 mm | - | 879 W/m² | - |
| 1787416328 | 31.67° C | 77% | 1016 hPa | 0 mm | - | 355 W/m² | - |
| 1787416027 | 32.22° C | 74% | 1015.9 hPa | 0 mm | - | 813 W/m² | - |
| 1787415722 | 32.22° C | 72% | 1015.9 hPa | 0 mm | - | 831 W/m² | - |
| 1787415422 | 31.67° C | 73% | 1015.8 hPa | 0 mm | - | 749 W/m² | - |
| 1787415117 | 32.22° C | 74% | 1015.9 hPa | 0 mm | - | 260 W/m² | - |
| 1787414813 | 31.67° C | 79% | 1015.9 hPa | 0 mm | - | 762 W/m² | - |
| 1787414508 | 31.67° C | 80% | 1015.9 hPa | 0 mm | - | 568 W/m² | - |
| 1787414207 | 31.67° C | 78% | 1015.8 hPa | 0 mm | - | 516 W/m² | - |
| 1787413906 | 31.67° C | 77% | 1016.2 hPa | 0 mm | - | 196 W/m² | - |
| 1787413602 | 32.22° C | 75% | 1016 hPa | 0 mm | - | 709 W/m² | - |
| 1787413301 | 31.67° C | 78% | 1016.2 hPa | 0 mm | - | 676 W/m² | - |
| 1787412997 | 31.67° C | 78% | 1016.1 hPa | 0 mm | - | 674 W/m² | - |
| 1787412692 | 31.67° C | 78% | 1016.3 hPa | 0 mm | - | 618 W/m² | - |
| 1787412387 | 31.67° C | 80% | 1016.2 hPa | 0 mm | - | 694 W/m² | - |
| 1787412083 | 31.67° C | 79% | 1016.3 hPa | 0 mm | - | 664 W/m² | - |
| 1787411780 | 31.11° C | 81% | 1016.4 hPa | 0 mm | - | 623 W/m² | - |
| 1787411475 | 31.11° C | 82% | 1016.4 hPa | 0 mm | - | 608 W/m² | - |
| 1787411171 | 31.11° C | 81% | 1016.5 hPa | 0 mm | - | 604 W/m² | - |
| 1787410867 | 31.11° C | 83% | 1016.3 hPa | 0 mm | - | 612 W/m² | - |
| 1787410563 | 30.56° C | 85% | 1016.3 hPa | 0 mm | - | 445 W/m² | - |
| 1787410257 | 31.11° C | 84% | 1016.5 hPa | 0 mm | - | 361 W/m² | - |
* Rain latest hour (hover to see other rain measurements)
** Current wind speed in m/s (hover to see current wind gust speed)